KLM45J EHAM-LPPR
Flight info
| Callsign | KLM45J |
|---|---|
| Flight time | 2h 12m |
| Altitude | 39000 |
| Route | WOODY DCT MEDIL DCT KOVIN DCT NIDUV DCT KIHVI UN872 GODIX UN872 ERIGA UZ218 FUJTI DCT ATLEN DCT INSID T326 ASPOR |
| Aircraft | B737/M-SDE2E3FGHIRWXY/LB1 |
Departure
| Time | 2026-05-07 07:36 |
|---|---|
| Airport | Amsterdam Airport Schiphol (EHAM) |
Arrival
| Time | 2026-05-07 09:48 |
|---|---|
| Airport | Francisco de Sá Carneiro Airport (LPPR) |
| Time | Latitude | Longitude | Altitude | Speed | Heading |
|---|---|---|---|---|---|
| 2026-05-07 07:08 | 52.31150 | 4.77068 | -2 ft | 0 kts | 2° |
| 2026-05-07 07:24 | 52.31149 | 4.77068 | -2 ft | 1 kts | 2° |
| 2026-05-07 07:25 | 52.31099 | 4.77062 | -2 ft | 4 kts | 354° |
| 2026-05-07 07:25 | 52.31081 | 4.77071 | -2 ft | 3 kts | 279° |
| 2026-05-07 07:25 | 52.31080 | 4.77076 | -2 ft | 1 kts | 273° |
| 2026-05-07 07:27 | 52.31082 | 4.77023 | -2 ft | 9 kts | 273° |
| 2026-05-07 07:28 | 52.31121 | 4.76935 | -2 ft | 12 kts | 344° |
| 2026-05-07 07:28 | 52.31201 | 4.76995 | -2 ft | 14 kts | 32° |
| 2026-05-07 07:28 | 52.31288 | 4.77094 | -2 ft | 15 kts | 52° |
| 2026-05-07 07:28 | 52.31292 | 4.77262 | -2 ft | 16 kts | 94° |
| 2026-05-07 07:29 | 52.31287 | 4.77449 | -2 ft | 14 kts | 98° |
| 2026-05-07 07:29 | 52.31202 | 4.77501 | -2 ft | 17 kts | 183° |
| 2026-05-07 07:29 | 52.31063 | 4.77489 | -2 ft | 22 kts | 183° |
| 2026-05-07 07:29 | 52.30910 | 4.77475 | -2 ft | 23 kts | 183° |
| 2026-05-07 07:30 | 52.30747 | 4.77460 | -2 ft | 23 kts | 183° |
| 2026-05-07 07:30 | 52.30631 | 4.77396 | -2 ft | 16 kts | 237° |
| 2026-05-07 07:30 | 52.30562 | 4.77217 | -2 ft | 22 kts | 238° |
| 2026-05-07 07:30 | 52.30472 | 4.76984 | -2 ft | 25 kts | 238° |
| 2026-05-07 07:31 | 52.30375 | 4.76731 | -2 ft | 27 kts | 238° |
| 2026-05-07 07:31 | 52.30274 | 4.76468 | -2 ft | 27 kts | 238° |
| 2026-05-07 07:31 | 52.30179 | 4.76221 | -2 ft | 25 kts | 238° |
| 2026-05-07 07:31 | 52.30091 | 4.75990 | -2 ft | 23 kts | 237° |
| 2026-05-07 07:32 | 52.30004 | 4.75763 | -2 ft | 26 kts | 238° |
| 2026-05-07 07:32 | 52.29909 | 4.75517 | -2 ft | 25 kts | 238° |
| 2026-05-07 07:32 | 52.29832 | 4.75298 | -2 ft | 19 kts | 256° |
| 2026-05-07 07:32 | 52.29884 | 4.75116 | -2 ft | 18 kts | 311° |
| 2026-05-07 07:33 | 52.29982 | 4.74936 | -2 ft | 25 kts | 311° |
| 2026-05-07 07:33 | 52.30109 | 4.74701 | 4 ft | 27 kts | 311° |
| 2026-05-07 07:33 | 52.30229 | 4.74479 | 9 ft | 25 kts | 311° |
| 2026-05-07 07:33 | 52.30331 | 4.74287 | -3 ft | 18 kts | 310° |
| 2026-05-07 07:34 | 52.30362 | 4.74111 | -2 ft | 17 kts | 245° |
| 2026-05-07 07:34 | 52.30269 | 4.73974 | -2 ft | 18 kts | 217° |
| 2026-05-07 07:34 | 52.30188 | 4.73847 | -3 ft | 16 kts | 258° |
| 2026-05-07 07:34 | 52.30227 | 4.73740 | -4 ft | 8 kts | 4° |
| 2026-05-07 07:35 | 52.30253 | 4.73742 | -5 ft | 4 kts | 3° |
| 2026-05-07 07:35 | 52.30314 | 4.73748 | -5 ft | 17 kts | 3° |
| 2026-05-07 07:35 | 52.30691 | 4.73783 | -3 ft | 92 kts | 3° |
| 2026-05-07 07:35 | 52.31547 | 4.73862 | -3 ft | 153 kts | 4° |
| 2026-05-07 07:36 | 52.32744 | 4.73989 | 327 ft | 181 kts | 6° |
| 2026-05-07 07:36 | 52.34007 | 4.74301 | 1204 ft | 185 kts | 21° |
| 2026-05-07 07:36 | 52.35201 | 4.75161 | 2054 ft | 195 kts | 24° |
| 2026-05-07 07:36 | 52.36497 | 4.76108 | 2576 ft | 214 kts | 33° |
| 2026-05-07 07:37 | 52.37385 | 4.78025 | 3329 ft | 220 kts | 74° |
| 2026-05-07 07:37 | 52.37352 | 4.80547 | 4262 ft | 227 kts | 99° |
| 2026-05-07 07:37 | 52.36814 | 4.82995 | 5206 ft | 234 kts | 124° |
| 2026-05-07 07:37 | 52.35555 | 4.84659 | 6203 ft | 239 kts | 158° |
| 2026-05-07 07:38 | 52.33916 | 4.85045 | 7145 ft | 240 kts | 180° |
| 2026-05-07 07:38 | 52.32180 | 4.85001 | 7684 ft | 262 kts | 181° |
| 2026-05-07 07:38 | 52.30274 | 4.84926 | 8224 ft | 281 kts | 182° |
| 2026-05-07 07:38 | 52.28307 | 4.84863 | 9158 ft | 284 kts | 182° |
| 2026-05-07 07:39 | 52.26321 | 4.84811 | 10118 ft | 287 kts | 182° |
| 2026-05-07 07:39 | 52.24308 | 4.84764 | 10941 ft | 292 kts | 182° |
| 2026-05-07 07:39 | 52.22308 | 4.84457 | 11700 ft | 298 kts | 195° |
| 2026-05-07 07:39 | 52.20230 | 4.83357 | 11969 ft | 323 kts | 201° |
| 2026-05-07 07:40 | 52.18054 | 4.82000 | 12269 ft | 344 kts | 202° |
| 2026-05-07 07:40 | 52.15796 | 4.80564 | 13008 ft | 351 kts | 202° |
| 2026-05-07 07:40 | 52.13503 | 4.79125 | 13867 ft | 355 kts | 202° |
| 2026-05-07 07:40 | 52.11177 | 4.77691 | 14669 ft | 360 kts | 202° |
| 2026-05-07 07:41 | 52.08822 | 4.76263 | 15476 ft | 363 kts | 201° |
| 2026-05-07 07:41 | 52.06435 | 4.74832 | 16300 ft | 368 kts | 201° |
| 2026-05-07 07:41 | 52.04020 | 4.73398 | 17119 ft | 372 kts | 201° |
| 2026-05-07 07:41 | 52.01571 | 4.71951 | 17903 ft | 376 kts | 201° |
| 2026-05-07 07:42 | 51.99095 | 4.70493 | 18628 ft | 381 kts | 201° |
| 2026-05-07 07:42 | 51.96618 | 4.69039 | 19322 ft | 385 kts | 201° |
| 2026-05-07 07:42 | 51.94057 | 4.67537 | 20058 ft | 388 kts | 201° |
| 2026-05-07 07:42 | 51.91541 | 4.66064 | 20759 ft | 391 kts | 201° |
| 2026-05-07 07:43 | 51.88930 | 4.64537 | 21434 ft | 396 kts | 201° |
| 2026-05-07 07:43 | 51.86364 | 4.63038 | 22085 ft | 400 kts | 201° |
| 2026-05-07 07:43 | 51.83734 | 4.61504 | 22740 ft | 404 kts | 201° |
| 2026-05-07 07:43 | 51.81076 | 4.59954 | 23379 ft | 408 kts | 201° |
| 2026-05-07 07:44 | 51.78393 | 4.58393 | 23943 ft | 412 kts | 201° |
| 2026-05-07 07:44 | 51.75691 | 4.56822 | 24487 ft | 414 kts | 201° |
| 2026-05-07 07:44 | 51.72971 | 4.55243 | 25037 ft | 417 kts | 201° |
| 2026-05-07 07:44 | 51.70234 | 4.53656 | 25574 ft | 419 kts | 201° |
| 2026-05-07 07:45 | 51.67478 | 4.52060 | 26111 ft | 422 kts | 201° |
| 2026-05-07 07:45 | 51.64700 | 4.50454 | 26595 ft | 426 kts | 201° |
| 2026-05-07 07:45 | 51.61904 | 4.48839 | 27077 ft | 429 kts | 201° |
| 2026-05-07 07:45 | 51.59086 | 4.47213 | 27560 ft | 432 kts | 201° |
| 2026-05-07 07:46 | 51.56249 | 4.45579 | 28031 ft | 435 kts | 201° |
| 2026-05-07 07:46 | 51.53395 | 4.43937 | 28481 ft | 437 kts | 201° |
| 2026-05-07 07:46 | 51.50519 | 4.42284 | 28931 ft | 440 kts | 201° |
| 2026-05-07 07:46 | 51.47627 | 4.40625 | 29354 ft | 443 kts | 201° |
| 2026-05-07 07:47 | 51.44714 | 4.38954 | 29770 ft | 446 kts | 201° |
| 2026-05-07 07:47 | 51.41786 | 4.37279 | 30147 ft | 449 kts | 201° |
| 2026-05-07 07:47 | 51.38843 | 4.35560 | 30471 ft | 451 kts | 202° |
| 2026-05-07 07:47 | 51.35925 | 4.33688 | 30792 ft | 453 kts | 204° |
| 2026-05-07 07:48 | 51.33021 | 4.31735 | 31183 ft | 453 kts | 204° |
| 2026-05-07 07:48 | 51.30132 | 4.29766 | 31672 ft | 450 kts | 204° |
| 2026-05-07 07:48 | 51.27255 | 4.27813 | 32132 ft | 449 kts | 204° |
| 2026-05-07 07:48 | 51.24375 | 4.25875 | 32518 ft | 449 kts | 204° |
| 2026-05-07 07:49 | 51.21493 | 4.23952 | 32857 ft | 450 kts | 204° |
| 2026-05-07 07:49 | 51.18605 | 4.22038 | 33242 ft | 449 kts | 203° |
| 2026-05-07 07:49 | 51.15722 | 4.20138 | 33663 ft | 448 kts | 203° |
| 2026-05-07 07:49 | 51.12847 | 4.18248 | 34062 ft | 447 kts | 203° |
| 2026-05-07 07:50 | 51.09971 | 4.16361 | 34336 ft | 447 kts | 203° |
| 2026-05-07 07:50 | 51.07096 | 4.14477 | 34592 ft | 447 kts | 203° |
| 2026-05-07 07:50 | 51.04219 | 4.12594 | 34848 ft | 447 kts | 203° |
| 2026-05-07 07:50 | 51.01340 | 4.10711 | 35128 ft | 447 kts | 203° |
| 2026-05-07 07:51 | 50.98465 | 4.08833 | 35401 ft | 447 kts | 203° |
| 2026-05-07 07:51 | 50.95586 | 4.06956 | 35664 ft | 447 kts | 203° |
| 2026-05-07 07:51 | 50.92709 | 4.05082 | 35917 ft | 447 kts | 203° |
| 2026-05-07 07:51 | 50.89830 | 4.03209 | 36173 ft | 447 kts | 203° |
| 2026-05-07 07:52 | 50.86949 | 4.01337 | 36418 ft | 447 kts | 203° |
| 2026-05-07 07:52 | 50.84109 | 3.99495 | 36658 ft | 447 kts | 203° |
| 2026-05-07 07:52 | 50.81226 | 3.97627 | 36898 ft | 448 kts | 203° |
| 2026-05-07 07:52 | 50.78344 | 3.95762 | 37118 ft | 448 kts | 203° |
| 2026-05-07 07:53 | 50.75461 | 3.93899 | 37334 ft | 448 kts | 203° |
| 2026-05-07 07:53 | 50.72572 | 3.92035 | 37575 ft | 448 kts | 203° |
| 2026-05-07 07:53 | 50.69684 | 3.90173 | 37832 ft | 448 kts | 203° |
| 2026-05-07 07:53 | 50.66800 | 3.88317 | 38043 ft | 448 kts | 203° |
| 2026-05-07 07:54 | 50.63911 | 3.86460 | 38253 ft | 448 kts | 203° |
| 2026-05-07 07:54 | 50.61026 | 3.84608 | 38482 ft | 448 kts | 203° |
| 2026-05-07 07:54 | 50.58138 | 3.82756 | 38689 ft | 448 kts | 203° |
| 2026-05-07 07:54 | 50.55252 | 3.80909 | 38846 ft | 448 kts | 203° |
| 2026-05-07 07:55 | 50.52362 | 3.79061 | 39004 ft | 448 kts | 203° |
| 2026-05-07 07:55 | 50.46555 | 3.75355 | 39038 ft | 451 kts | 203° |
| 2026-05-07 07:56 | 50.40771 | 3.71673 | 39038 ft | 447 kts | 203° |
| 2026-05-07 07:56 | 50.35026 | 3.68026 | 39038 ft | 444 kts | 203° |
| 2026-05-07 07:57 | 50.29391 | 3.64326 | 39042 ft | 441 kts | 205° |
| 2026-05-07 07:57 | 50.23735 | 3.60473 | 39046 ft | 440 kts | 205° |
| 2026-05-07 07:58 | 50.18152 | 3.56680 | 39045 ft | 441 kts | 205° |
| 2026-05-07 07:58 | 50.12506 | 3.52876 | 39048 ft | 443 kts | 204° |
| 2026-05-07 07:59 | 50.06832 | 3.49073 | 39050 ft | 445 kts | 204° |
| 2026-05-07 07:59 | 50.01128 | 3.45261 | 39048 ft | 447 kts | 204° |
| 2026-05-07 08:00 | 49.95397 | 3.41440 | 39050 ft | 449 kts | 204° |
| 2026-05-07 08:00 | 49.89647 | 3.37617 | 39049 ft | 450 kts | 204° |
| 2026-05-07 08:01 | 49.83883 | 3.33793 | 39052 ft | 451 kts | 204° |
| 2026-05-07 08:01 | 49.78118 | 3.29979 | 39046 ft | 451 kts | 204° |
| 2026-05-07 08:02 | 49.72354 | 3.26176 | 39045 ft | 450 kts | 204° |
| 2026-05-07 08:02 | 49.66601 | 3.22389 | 39045 ft | 449 kts | 204° |
| 2026-05-07 08:03 | 49.60862 | 3.18620 | 39046 ft | 448 kts | 204° |
| 2026-05-07 08:03 | 49.55138 | 3.14871 | 39047 ft | 447 kts | 204° |
| 2026-05-07 08:04 | 49.49714 | 3.10368 | 39043 ft | 442 kts | 222° |
| 2026-05-07 08:04 | 49.45879 | 3.03113 | 39054 ft | 438 kts | 242° |
| 2026-05-07 08:05 | 49.43061 | 2.94813 | 39060 ft | 438 kts | 243° |
| 2026-05-07 08:05 | 49.40262 | 2.86490 | 39047 ft | 439 kts | 243° |
| 2026-05-07 08:06 | 49.37424 | 2.78193 | 39049 ft | 439 kts | 243° |
| 2026-05-07 08:06 | 49.34554 | 2.69903 | 39051 ft | 440 kts | 242° |
| 2026-05-07 08:07 | 49.31670 | 2.61621 | 39058 ft | 441 kts | 242° |
| 2026-05-07 08:07 | 49.28775 | 2.53340 | 39050 ft | 441 kts | 242° |
| 2026-05-07 08:08 | 49.25877 | 2.45073 | 39045 ft | 440 kts | 242° |
| 2026-05-07 08:08 | 49.23467 | 2.38216 | 39065 ft | 440 kts | 242° |
| 2026-05-07 08:09 | 49.20558 | 2.29964 | 39039 ft | 441 kts | 242° |
| 2026-05-07 08:09 | 49.17645 | 2.21728 | 39051 ft | 440 kts | 242° |
| 2026-05-07 08:10 | 49.14731 | 2.13514 | 39051 ft | 439 kts | 242° |
| 2026-05-07 08:10 | 49.11815 | 2.05321 | 39047 ft | 439 kts | 242° |
| 2026-05-07 08:11 | 49.08896 | 1.97144 | 39045 ft | 439 kts | 242° |
| 2026-05-07 08:11 | 49.05971 | 1.88979 | 39034 ft | 439 kts | 242° |
| 2026-05-07 08:12 | 49.03045 | 1.80832 | 39050 ft | 438 kts | 242° |
| 2026-05-07 08:12 | 49.00112 | 1.72695 | 39064 ft | 438 kts | 242° |
| 2026-05-07 08:13 | 48.97175 | 1.64572 | 39060 ft | 438 kts | 242° |
| 2026-05-07 08:13 | 48.94232 | 1.56456 | 39064 ft | 438 kts | 242° |
| 2026-05-07 08:14 | 48.91285 | 1.48356 | 39063 ft | 438 kts | 242° |
| 2026-05-07 08:14 | 48.88333 | 1.40267 | 39071 ft | 438 kts | 241° |
| 2026-05-07 08:15 | 48.85373 | 1.32181 | 39069 ft | 438 kts | 241° |
| 2026-05-07 08:15 | 48.82409 | 1.24109 | 39066 ft | 438 kts | 241° |
| 2026-05-07 08:16 | 48.79458 | 1.16095 | 39062 ft | 438 kts | 241° |
| 2026-05-07 08:16 | 48.76483 | 1.08042 | 39061 ft | 438 kts | 241° |
| 2026-05-07 08:17 | 48.73499 | 0.99991 | 39064 ft | 438 kts | 241° |
| 2026-05-07 08:17 | 48.70507 | 0.91941 | 39063 ft | 439 kts | 241° |
| 2026-05-07 08:18 | 48.67510 | 0.83904 | 39064 ft | 439 kts | 241° |
| 2026-05-07 08:18 | 48.64505 | 0.75868 | 39057 ft | 439 kts | 241° |
| 2026-05-07 08:19 | 48.61495 | 0.67846 | 39058 ft | 439 kts | 241° |
| 2026-05-07 08:19 | 48.58481 | 0.59835 | 39063 ft | 439 kts | 240° |
| 2026-05-07 08:20 | 48.55460 | 0.51830 | 39071 ft | 439 kts | 240° |
| 2026-05-07 08:20 | 48.52432 | 0.43832 | 39066 ft | 439 kts | 240° |
| 2026-05-07 08:21 | 48.49398 | 0.35841 | 39064 ft | 439 kts | 240° |
| 2026-05-07 08:21 | 48.46359 | 0.27861 | 39062 ft | 439 kts | 240° |
| 2026-05-07 08:22 | 48.43317 | 0.19897 | 39057 ft | 438 kts | 240° |
| 2026-05-07 08:22 | 48.40273 | 0.11953 | 39063 ft | 438 kts | 240° |
| 2026-05-07 08:23 | 48.37226 | 0.04023 | 39060 ft | 438 kts | 240° |
| 2026-05-07 08:23 | 48.34176 | -0.03894 | 39062 ft | 437 kts | 240° |
| 2026-05-07 08:24 | 48.31121 | -0.11798 | 39058 ft | 437 kts | 240° |
| 2026-05-07 08:24 | 48.28061 | -0.19694 | 39061 ft | 438 kts | 240° |
| 2026-05-07 08:25 | 48.24553 | -0.27136 | 39052 ft | 438 kts | 225° |
| 2026-05-07 08:25 | 48.20074 | -0.33332 | 39050 ft | 438 kts | 223° |
| 2026-05-07 08:26 | 48.13271 | -0.42489 | 39053 ft | 438 kts | 223° |
| 2026-05-07 08:26 | 48.08753 | -0.48622 | 39051 ft | 438 kts | 223° |
| 2026-05-07 08:27 | 48.04246 | -0.54757 | 39051 ft | 438 kts | 223° |
| 2026-05-07 08:27 | 47.99739 | -0.60885 | 39043 ft | 438 kts | 223° |
| 2026-05-07 08:28 | 47.95231 | -0.67000 | 39050 ft | 438 kts | 223° |
| 2026-05-07 08:28 | 47.90749 | -0.73062 | 39050 ft | 438 kts | 223° |
| 2026-05-07 08:29 | 47.86234 | -0.79154 | 39051 ft | 438 kts | 223° |
| 2026-05-07 08:29 | 47.81714 | -0.85239 | 39052 ft | 438 kts | 223° |
| 2026-05-07 08:30 | 47.77190 | -0.91312 | 39048 ft | 438 kts | 223° |
| 2026-05-07 08:30 | 47.72665 | -0.97373 | 39054 ft | 438 kts | 223° |
| 2026-05-07 08:31 | 47.68137 | -1.03423 | 39042 ft | 438 kts | 223° |
| 2026-05-07 08:31 | 47.63603 | -1.09466 | 39044 ft | 438 kts | 223° |
| 2026-05-07 08:32 | 47.59072 | -1.15490 | 39041 ft | 438 kts | 223° |
| 2026-05-07 08:32 | 47.54541 | -1.21501 | 39035 ft | 437 kts | 223° |
| 2026-05-07 08:33 | 47.50006 | -1.27500 | 39036 ft | 437 kts | 222° |
| 2026-05-07 08:33 | 47.45473 | -1.33484 | 39031 ft | 437 kts | 222° |
| 2026-05-07 08:34 | 47.40941 | -1.39452 | 39031 ft | 437 kts | 222° |
| 2026-05-07 08:34 | 47.36403 | -1.45413 | 39021 ft | 436 kts | 222° |
| 2026-05-07 08:35 | 47.31870 | -1.51353 | 39023 ft | 436 kts | 222° |
| 2026-05-07 08:35 | 47.27333 | -1.57285 | 39022 ft | 436 kts | 222° |
| 2026-05-07 08:36 | 47.22797 | -1.63201 | 39022 ft | 436 kts | 222° |
| 2026-05-07 08:36 | 47.18289 | -1.69067 | 39025 ft | 436 kts | 222° |
| 2026-05-07 08:37 | 47.13745 | -1.74966 | 39020 ft | 436 kts | 222° |
| 2026-05-07 08:37 | 47.09200 | -1.80852 | 39023 ft | 436 kts | 222° |
| 2026-05-07 08:38 | 47.04650 | -1.86730 | 39025 ft | 436 kts | 222° |
| 2026-05-07 08:38 | 47.00100 | -1.92594 | 39024 ft | 436 kts | 222° |
| 2026-05-07 08:39 | 46.95546 | -1.98450 | 39021 ft | 436 kts | 222° |
| 2026-05-07 08:39 | 46.90989 | -2.04296 | 39028 ft | 435 kts | 222° |
| 2026-05-07 08:40 | 46.86431 | -2.10129 | 39023 ft | 436 kts | 222° |
| 2026-05-07 08:40 | 46.81867 | -2.15956 | 39022 ft | 436 kts | 222° |
| 2026-05-07 08:41 | 46.77303 | -2.21770 | 39022 ft | 436 kts | 222° |
| 2026-05-07 08:41 | 46.72733 | -2.27578 | 39022 ft | 436 kts | 221° |
| 2026-05-07 08:42 | 46.68191 | -2.33337 | 39021 ft | 436 kts | 221° |
| 2026-05-07 08:42 | 46.63617 | -2.39122 | 39022 ft | 436 kts | 221° |
| 2026-05-07 08:43 | 46.59038 | -2.44901 | 39024 ft | 436 kts | 221° |
| 2026-05-07 08:43 | 46.54456 | -2.50670 | 39025 ft | 436 kts | 221° |
| 2026-05-07 08:44 | 46.49875 | -2.56424 | 39025 ft | 435 kts | 221° |
| 2026-05-07 08:44 | 46.45290 | -2.62171 | 39021 ft | 435 kts | 221° |
| 2026-05-07 08:45 | 46.40705 | -2.67903 | 39021 ft | 435 kts | 221° |
| 2026-05-07 08:45 | 46.36122 | -2.73620 | 39022 ft | 435 kts | 221° |
| 2026-05-07 08:46 | 46.31536 | -2.79328 | 39021 ft | 435 kts | 221° |
| 2026-05-07 08:46 | 46.26948 | -2.85025 | 39021 ft | 435 kts | 221° |
| 2026-05-07 08:47 | 46.22359 | -2.90711 | 39019 ft | 435 kts | 221° |
| 2026-05-07 08:47 | 46.17767 | -2.96387 | 39019 ft | 434 kts | 221° |
| 2026-05-07 08:48 | 46.13174 | -3.02051 | 39019 ft | 434 kts | 221° |
| 2026-05-07 08:48 | 46.08579 | -3.07705 | 39010 ft | 434 kts | 221° |
| 2026-05-07 08:49 | 46.03983 | -3.13348 | 39014 ft | 434 kts | 221° |
| 2026-05-07 08:49 | 45.99382 | -3.18984 | 39014 ft | 435 kts | 221° |
| 2026-05-07 08:50 | 45.94774 | -3.24616 | 39020 ft | 435 kts | 221° |
| 2026-05-07 08:50 | 45.90163 | -3.30238 | 39015 ft | 435 kts | 221° |
| 2026-05-07 08:51 | 45.85548 | -3.35852 | 39022 ft | 435 kts | 221° |
| 2026-05-07 08:51 | 45.80927 | -3.41461 | 39017 ft | 435 kts | 221° |
| 2026-05-07 08:52 | 45.76303 | -3.47062 | 39014 ft | 435 kts | 221° |
| 2026-05-07 08:52 | 45.71677 | -3.52653 | 39010 ft | 435 kts | 221° |
| 2026-05-07 08:53 | 45.67043 | -3.58240 | 39019 ft | 435 kts | 221° |
| 2026-05-07 08:53 | 45.62410 | -3.63813 | 39008 ft | 436 kts | 221° |
| 2026-05-07 08:54 | 45.57766 | -3.69387 | 39009 ft | 436 kts | 221° |
| 2026-05-07 08:54 | 45.53155 | -3.74910 | 39014 ft | 436 kts | 221° |
| 2026-05-07 08:55 | 45.48506 | -3.80466 | 39003 ft | 436 kts | 221° |
| 2026-05-07 08:55 | 45.43854 | -3.86012 | 39006 ft | 436 kts | 221° |
| 2026-05-07 08:56 | 45.39199 | -3.91551 | 39006 ft | 436 kts | 221° |
| 2026-05-07 08:56 | 45.34539 | -3.97082 | 39012 ft | 436 kts | 220° |
| 2026-05-07 08:57 | 45.29874 | -4.02607 | 38997 ft | 437 kts | 220° |
| 2026-05-07 08:57 | 45.25204 | -4.08126 | 39009 ft | 437 kts | 220° |
| 2026-05-07 08:58 | 45.21292 | -4.12740 | 39003 ft | 437 kts | 220° |
| 2026-05-07 08:58 | 45.16648 | -4.18205 | 39001 ft | 437 kts | 220° |
| 2026-05-07 08:59 | 45.11971 | -4.23699 | 39001 ft | 437 kts | 220° |
| 2026-05-07 08:59 | 45.07289 | -4.29186 | 38993 ft | 437 kts | 220° |
| 2026-05-07 09:00 | 45.02609 | -4.34658 | 39004 ft | 436 kts | 220° |
| 2026-05-07 09:00 | 44.97930 | -4.40116 | 39001 ft | 436 kts | 220° |
| 2026-05-07 09:01 | 44.93247 | -4.45568 | 38994 ft | 436 kts | 220° |
| 2026-05-07 09:01 | 44.88564 | -4.51008 | 38993 ft | 436 kts | 220° |
| 2026-05-07 09:02 | 44.83881 | -4.56437 | 38985 ft | 436 kts | 220° |
| 2026-05-07 09:02 | 44.79194 | -4.61858 | 38991 ft | 436 kts | 220° |
| 2026-05-07 09:03 | 44.74507 | -4.67268 | 38992 ft | 436 kts | 220° |
| 2026-05-07 09:03 | 44.69812 | -4.72675 | 38988 ft | 436 kts | 220° |
| 2026-05-07 09:04 | 44.65113 | -4.78075 | 38984 ft | 437 kts | 220° |
| 2026-05-07 09:04 | 44.60409 | -4.83470 | 38981 ft | 437 kts | 220° |
| 2026-05-07 09:05 | 44.55697 | -4.88864 | 38983 ft | 437 kts | 220° |
| 2026-05-07 09:05 | 44.50980 | -4.94250 | 38980 ft | 437 kts | 220° |
| 2026-05-07 09:06 | 44.46117 | -4.99372 | 38977 ft | 438 kts | 217° |
| 2026-05-07 09:06 | 44.41144 | -5.04297 | 38976 ft | 438 kts | 216° |
| 2026-05-07 09:07 | 44.36171 | -5.09216 | 38961 ft | 438 kts | 216° |
| 2026-05-07 09:07 | 44.31209 | -5.14159 | 38960 ft | 438 kts | 217° |
| 2026-05-07 09:08 | 44.26257 | -5.19102 | 38962 ft | 437 kts | 217° |
| 2026-05-07 09:08 | 44.21305 | -5.24039 | 38963 ft | 437 kts | 217° |
| 2026-05-07 09:09 | 44.16355 | -5.28964 | 38958 ft | 437 kts | 216° |
| 2026-05-07 09:09 | 44.11437 | -5.33846 | 38964 ft | 437 kts | 216° |
| 2026-05-07 09:10 | 44.06482 | -5.38755 | 38959 ft | 437 kts | 216° |
| 2026-05-07 09:10 | 44.01520 | -5.43656 | 38954 ft | 437 kts | 217° |
| 2026-05-07 09:11 | 43.96559 | -5.48552 | 38943 ft | 438 kts | 217° |
| 2026-05-07 09:11 | 43.91590 | -5.53437 | 38942 ft | 438 kts | 216° |
| 2026-05-07 09:12 | 43.86619 | -5.58318 | 38946 ft | 438 kts | 216° |
| 2026-05-07 09:12 | 43.81638 | -5.63201 | 38934 ft | 439 kts | 216° |
| 2026-05-07 09:13 | 43.76648 | -5.68088 | 38935 ft | 440 kts | 216° |
| 2026-05-07 09:13 | 43.71642 | -5.72977 | 38933 ft | 441 kts | 216° |
| 2026-05-07 09:14 | 43.66621 | -5.77869 | 38933 ft | 442 kts | 216° |
| 2026-05-07 09:14 | 43.61583 | -5.82766 | 38935 ft | 443 kts | 216° |
| 2026-05-07 09:15 | 43.56535 | -5.87663 | 38943 ft | 444 kts | 216° |
| 2026-05-07 09:15 | 43.51470 | -5.92566 | 38940 ft | 445 kts | 216° |
| 2026-05-07 09:16 | 43.46397 | -5.97466 | 38931 ft | 445 kts | 216° |
| 2026-05-07 09:16 | 43.41328 | -6.02353 | 38929 ft | 445 kts | 216° |
| 2026-05-07 09:17 | 43.36260 | -6.07228 | 38934 ft | 444 kts | 216° |
| 2026-05-07 09:17 | 43.31193 | -6.12089 | 38929 ft | 444 kts | 216° |
| 2026-05-07 09:18 | 43.26135 | -6.16935 | 38916 ft | 443 kts | 216° |
| 2026-05-07 09:18 | 43.21078 | -6.21771 | 38920 ft | 443 kts | 216° |
| 2026-05-07 09:19 | 43.16030 | -6.26587 | 38916 ft | 442 kts | 216° |
| 2026-05-07 09:19 | 43.10989 | -6.31388 | 38923 ft | 441 kts | 216° |
| 2026-05-07 09:20 | 43.05946 | -6.36180 | 38918 ft | 441 kts | 216° |
| 2026-05-07 09:20 | 43.00935 | -6.40931 | 38911 ft | 441 kts | 216° |
| 2026-05-07 09:21 | 42.95887 | -6.45707 | 38919 ft | 442 kts | 216° |
| 2026-05-07 09:21 | 42.90797 | -6.50514 | 38924 ft | 442 kts | 216° |
| 2026-05-07 09:22 | 42.85766 | -6.55256 | 38920 ft | 442 kts | 216° |
| 2026-05-07 09:22 | 42.80698 | -6.60023 | 38915 ft | 443 kts | 216° |
| 2026-05-07 09:23 | 42.75626 | -6.64784 | 38919 ft | 443 kts | 216° |
| 2026-05-07 09:23 | 42.70548 | -6.69541 | 38917 ft | 443 kts | 216° |
| 2026-05-07 09:24 | 42.65468 | -6.74290 | 38909 ft | 443 kts | 216° |
| 2026-05-07 09:24 | 42.60392 | -6.79026 | 38922 ft | 442 kts | 216° |
| 2026-05-07 09:25 | 42.55316 | -6.83753 | 38921 ft | 443 kts | 216° |
| 2026-05-07 09:25 | 42.50648 | -6.89106 | 38917 ft | 438 kts | 233° |
| 2026-05-07 09:26 | 42.46936 | -6.95637 | 38920 ft | 438 kts | 234° |
| 2026-05-07 09:26 | 42.43251 | -7.02200 | 38915 ft | 438 kts | 234° |
| 2026-05-07 09:27 | 42.39532 | -7.08737 | 38917 ft | 439 kts | 233° |
| 2026-05-07 09:27 | 42.35750 | -7.15325 | 37949 ft | 445 kts | 234° |
| 2026-05-07 09:28 | 42.33852 | -7.18618 | 37296 ft | 443 kts | 234° |
| 2026-05-07 09:28 | 42.31959 | -7.21897 | 36607 ft | 442 kts | 234° |
| 2026-05-07 09:28 | 42.30071 | -7.25164 | 35929 ft | 441 kts | 235° |
| 2026-05-07 09:28 | 42.28178 | -7.28434 | 35099 ft | 444 kts | 235° |
| 2026-05-07 09:29 | 42.26261 | -7.31749 | 34224 ft | 450 kts | 236° |
| 2026-05-07 09:29 | 42.24329 | -7.35086 | 33286 ft | 454 kts | 236° |
| 2026-05-07 09:29 | 42.22382 | -7.38448 | 32394 ft | 455 kts | 235° |
| 2026-05-07 09:29 | 42.20432 | -7.41808 | 31526 ft | 455 kts | 235° |
| 2026-05-07 09:30 | 42.18478 | -7.45170 | 30619 ft | 456 kts | 234° |
| 2026-05-07 09:30 | 42.16544 | -7.48493 | 29642 ft | 457 kts | 234° |
| 2026-05-07 09:30 | 42.14583 | -7.51858 | 28794 ft | 453 kts | 234° |
| 2026-05-07 09:30 | 42.12651 | -7.55169 | 28051 ft | 446 kts | 234° |
| 2026-05-07 09:31 | 42.10751 | -7.58420 | 27362 ft | 439 kts | 233° |
| 2026-05-07 09:31 | 42.08876 | -7.61626 | 26656 ft | 433 kts | 234° |
| 2026-05-07 09:31 | 42.06996 | -7.64836 | 25950 ft | 428 kts | 233° |
| 2026-05-07 09:31 | 42.05188 | -7.67922 | 25274 ft | 424 kts | 233° |
| 2026-05-07 09:32 | 42.03373 | -7.71021 | 24594 ft | 419 kts | 233° |
| 2026-05-07 09:32 | 42.01576 | -7.74086 | 23925 ft | 415 kts | 232° |
| 2026-05-07 09:32 | 41.99795 | -7.77121 | 23183 ft | 412 kts | 232° |
| 2026-05-07 09:32 | 41.98026 | -7.80129 | 22408 ft | 408 kts | 232° |
| 2026-05-07 09:33 | 41.96348 | -7.83166 | 21716 ft | 402 kts | 236° |
| 2026-05-07 09:33 | 41.94821 | -7.86280 | 21055 ft | 397 kts | 238° |
| 2026-05-07 09:33 | 41.93360 | -7.89401 | 20357 ft | 393 kts | 238° |
| 2026-05-07 09:33 | 41.91918 | -7.92507 | 19613 ft | 391 kts | 238° |
| 2026-05-07 09:34 | 41.90485 | -7.95577 | 19043 ft | 385 kts | 238° |
| 2026-05-07 09:34 | 41.89067 | -7.98589 | 18439 ft | 380 kts | 237° |
| 2026-05-07 09:34 | 41.87649 | -8.01574 | 17678 ft | 378 kts | 237° |
| 2026-05-07 09:34 | 41.86234 | -8.04533 | 16994 ft | 374 kts | 237° |
| 2026-05-07 09:35 | 41.84838 | -8.07444 | 16441 ft | 367 kts | 237° |
| 2026-05-07 09:35 | 41.83460 | -8.10311 | 15780 ft | 364 kts | 237° |
| 2026-05-07 09:35 | 41.82091 | -8.13155 | 15061 ft | 363 kts | 237° |
| 2026-05-07 09:35 | 41.80731 | -8.15971 | 14498 ft | 358 kts | 236° |
| 2026-05-07 09:36 | 41.79386 | -8.18759 | 13821 ft | 357 kts | 237° |
| 2026-05-07 09:36 | 41.78035 | -8.21553 | 13040 ft | 357 kts | 236° |
| 2026-05-07 09:36 | 41.76685 | -8.24342 | 12252 ft | 356 kts | 236° |
| 2026-05-07 09:36 | 41.75345 | -8.27111 | 11579 ft | 352 kts | 236° |
| 2026-05-07 09:37 | 41.74016 | -8.29855 | 10903 ft | 349 kts | 236° |
| 2026-05-07 09:37 | 41.72698 | -8.32570 | 10287 ft | 346 kts | 234° |
| 2026-05-07 09:37 | 41.71401 | -8.35245 | 9731 ft | 340 kts | 236° |
| 2026-05-07 09:37 | 41.70126 | -8.37875 | 9189 ft | 333 kts | 236° |
| 2026-05-07 09:38 | 41.68872 | -8.40458 | 8659 ft | 330 kts | 236° |
| 2026-05-07 09:38 | 41.67621 | -8.43027 | 8221 ft | 327 kts | 235° |
| 2026-05-07 09:38 | 41.66391 | -8.45548 | 7982 ft | 322 kts | 236° |
| 2026-05-07 09:38 | 41.65171 | -8.48050 | 7720 ft | 319 kts | 235° |
| 2026-05-07 09:39 | 41.63980 | -8.50494 | 7464 ft | 308 kts | 235° |
| 2026-05-07 09:39 | 41.62830 | -8.52851 | 7207 ft | 298 kts | 235° |
| 2026-05-07 09:39 | 41.61711 | -8.55142 | 6867 ft | 291 kts | 235° |
| 2026-05-07 09:39 | 41.60613 | -8.57388 | 6503 ft | 288 kts | 235° |
| 2026-05-07 09:40 | 41.59522 | -8.59621 | 6092 ft | 285 kts | 235° |
| 2026-05-07 09:40 | 41.58456 | -8.61798 | 5675 ft | 275 kts | 235° |
| 2026-05-07 09:40 | 41.57428 | -8.63899 | 5278 ft | 266 kts | 235° |
| 2026-05-07 09:40 | 41.56432 | -8.65934 | 4934 ft | 258 kts | 235° |
| 2026-05-07 09:41 | 41.55464 | -8.67913 | 4825 ft | 251 kts | 234° |
| 2026-05-07 09:41 | 41.54525 | -8.69823 | 4755 ft | 243 kts | 234° |
| 2026-05-07 09:41 | 41.53593 | -8.71715 | 4625 ft | 245 kts | 234° |
| 2026-05-07 09:41 | 41.52643 | -8.73575 | 4478 ft | 237 kts | 228° |
| 2026-05-07 09:42 | 41.51316 | -8.74670 | 4352 ft | 222 kts | 189° |
| 2026-05-07 09:42 | 41.49811 | -8.74611 | 4368 ft | 215 kts | 172° |
| 2026-05-07 09:42 | 41.48316 | -8.74283 | 4138 ft | 220 kts | 169° |
| 2026-05-07 09:42 | 41.46818 | -8.73899 | 3900 ft | 218 kts | 169° |
| 2026-05-07 09:43 | 41.45336 | -8.73514 | 3624 ft | 213 kts | 169° |
| 2026-05-07 09:43 | 41.43914 | -8.73136 | 3375 ft | 203 kts | 170° |
| 2026-05-07 09:43 | 41.42551 | -8.72780 | 3138 ft | 198 kts | 169° |
| 2026-05-07 09:43 | 41.41239 | -8.72432 | 2908 ft | 187 kts | 169° |
| 2026-05-07 09:44 | 41.39997 | -8.72072 | 2701 ft | 183 kts | 168° |
| 2026-05-07 09:44 | 41.39153 | -8.71856 | 2558 ft | 182 kts | 171° |
| 2026-05-07 09:44 | 41.37506 | -8.71453 | 2229 ft | 180 kts | 169° |
| 2026-05-07 09:44 | 41.36686 | -8.71242 | 2083 ft | 175 kts | 170° |
| 2026-05-07 09:45 | 41.35525 | -8.70937 | 1876 ft | 165 kts | 169° |
| 2026-05-07 09:45 | 41.34421 | -8.70644 | 1701 ft | 162 kts | 170° |
| 2026-05-07 09:45 | 41.32959 | -8.70262 | 1415 ft | 161 kts | 170° |
| 2026-05-07 09:45 | 41.31875 | -8.69979 | 1243 ft | 153 kts | 170° |
| 2026-05-07 09:46 | 41.31200 | -8.69801 | 1097 ft | 144 kts | 170° |
| 2026-05-07 09:46 | 41.30257 | -8.69555 | 935 ft | 134 kts | 171° |
| 2026-05-07 09:46 | 41.29330 | -8.69310 | 746 ft | 138 kts | 171° |
| 2026-05-07 09:46 | 41.28407 | -8.69069 | 574 ft | 132 kts | 170° |
| 2026-05-07 09:47 | 41.27517 | -8.68833 | 394 ft | 129 kts | 173° |
| 2026-05-07 09:47 | 41.26624 | -8.68605 | 262 ft | 131 kts | 172° |
| 2026-05-07 09:47 | 41.25749 | -8.68372 | 173 ft | 125 kts | 172° |
| 2026-05-07 09:47 | 41.24995 | -8.68177 | 197 ft | 93 kts | 168° |
| 2026-05-07 09:48 | 41.24469 | -8.68035 | 207 ft | 66 kts | 169° |
| 2026-05-07 09:48 | 41.24091 | -8.67936 | 214 ft | 42 kts | 169° |
| 2026-05-07 09:48 | 41.23896 | -8.67837 | 221 ft | 21 kts | 107° |
| 2026-05-07 09:48 | 41.23916 | -8.67656 | 229 ft | 12 kts | 79° |
| 2026-05-07 09:49 | 41.23921 | -8.67619 | 233 ft | 3 kts | 78° |
| 2026-05-07 09:49 | 41.23925 | -8.67591 | 233 ft | 0 kts | 78° |
| 2026-05-07 09:50 | 41.23928 | -8.67572 | 234 ft | 6 kts | 78° |
| 2026-05-07 09:50 | 41.23916 | -8.67509 | 237 ft | 10 kts | 142° |
| 2026-05-07 09:50 | 41.23833 | -8.67479 | 238 ft | 15 kts | 168° |
| 2026-05-07 09:50 | 41.23746 | -8.67438 | 238 ft | 11 kts | 133° |
| 2026-05-07 09:51 | 41.23698 | -8.67357 | 241 ft | 11 kts | 139° |
| 2026-05-07 09:51 | 41.23634 | -8.67330 | 241 ft | 4 kts | 148° |
| 2026-05-07 09:51 | 41.23631 | -8.67296 | 242 ft | 4 kts | 72° |
| 2026-05-07 09:51 | 41.23637 | -8.67264 | 244 ft | 4 kts | 78° |
| 2026-05-07 09:52 | 41.23641 | -8.67235 | 244 ft | 2 kts | 79° |